sensor_id;sensor_type;location;lat;lon;timestamp;pressure;altitude;pressure_sealevel;temperature;humidity
69766;BME280;57039;48.014;21.384;2022-11-11T00:01:02;102170.56;;;6.94;100.00
69766;BME280;57039;48.014;21.384;2022-11-11T00:02:25;102173.19;;;6.91;100.00
69766;BME280;57039;48.014;21.384;2022-11-11T00:03:46;102169.69;;;6.91;100.00
69766;BME280;57039;48.014;21.384;2022-11-11T00:05:08;102171.53;;;6.85;100.00
69766;BME280;57039;48.014;21.384;2022-11-11T00:06:29;102168.03;;;6.86;100.00
69766;BME280;57039;48.014;21.384;2022-11-11T00:07:51;102167.16;;;6.86;100.00
69766;BME280;57039;48.014;21.384;2022-11-11T00:09:12;102175.91;;;6.82;100.00
69766;BME280;57039;48.014;21.384;2022-11-11T00:10:34;102164.59;;;6.83;100.00
69766;BME280;57039;48.014;21.384;2022-11-11T00:11:55;102175.91;;;6.82;100.00
69766;BME280;57039;48.014;21.384;2022-11-11T00:13:24;102184.56;;;6.84;100.00
69766;BME280;57039;48.014;21.384;2022-11-11T00:14:46;102173.31;;;6.80;100.00
69766;BME280;57039;48.014;21.384;2022-11-11T00:16:11;102174.19;;;6.81;100.00
69766;BME280;57039;48.014;21.384;2022-11-11T00:17:33;102180.28;;;6.80;100.00
69766;BME280;57039;48.014;21.384;2022-11-11T00:19:13;102177.72;;;6.77;100.00
69766;BME280;57039;48.014;21.384;2022-11-11T00:20:53;102178.63;;;6.74;100.00
69766;BME280;57039;48.014;21.384;2022-11-11T00:22:33;102179.56;;;6.69;100.00
69766;BME280;57039;48.014;21.384;2022-11-11T00:26:02;102185.78;;;6.58;100.00
69766;BME280;57039;48.014;21.384;2022-11-11T00:27:44;102181.38;;;6.60;100.00
69766;BME280;57039;48.014;21.384;2022-11-11T00:29:05;102184.84;;;6.61;100.00
69766;BME280;57039;48.014;21.384;2022-11-11T00:30:27;102181.44;;;6.56;100.00
69766;BME280;57039;48.014;21.384;2022-11-11T00:31:48;102181.53;;;6.50;100.00
69766;BME280;57039;48.014;21.384;2022-11-11T00:33:28;102184.19;;;6.42;100.00
69766;BME280;57039;48.014;21.384;2022-11-11T00:34:50;102189.44;;;6.40;100.00
69766;BME280;57039;48.014;21.384;2022-11-11T00:36:30;102190.31;;;6.41;100.00
69766;BME280;57039;48.014;21.384;2022-11-11T00:37:51;102187.72;;;6.38;100.00
69766;BME280;57039;48.014;21.384;2022-11-11T00:39:13;102183.41;;;6.35;100.00
69766;BME280;57039;48.014;21.384;2022-11-11T00:40:34;102186.91;;;6.34;100.00
69766;BME280;57039;48.014;21.384;2022-11-11T00:41:57;102180.88;;;6.29;100.00
69766;BME280;57039;48.014;21.384;2022-11-11T00:43:18;102196.44;;;6.34;100.00
69766;BME280;57039;48.014;21.384;2022-11-11T00:44:39;102190.34;;;6.38;100.00
69766;BME280;57039;48.014;21.384;2022-11-11T00:46:01;102191.12;;;6.43;100.00
69766;BME280;57039;48.014;21.384;2022-11-11T00:47:41;102197.19;;;6.45;100.00
69766;BME280;57039;48.014;21.384;2022-11-11T00:49:21;102188.47;;;6.48;100.00
69766;BME280;57039;48.014;21.384;2022-11-11T00:51:01;102195.41;;;6.50;100.00
69766;BME280;57039;48.014;21.384;2022-11-11T00:52:23;102195.38;;;6.53;100.00
69766;BME280;57039;48.014;21.384;2022-11-11T00:53:44;102200.59;;;6.53;100.00
69766;BME280;57039;48.014;21.384;2022-11-11T00:55:06;102202.31;;;6.54;100.00
69766;BME280;57039;48.014;21.384;2022-11-11T00:56:28;102199.69;;;6.56;100.00
69766;BME280;57039;48.014;21.384;2022-11-11T00:57:49;102200.53;;;6.58;100.00
69766;BME280;57039;48.014;21.384;2022-11-11T00:59:11;102197.09;;;6.54;100.00
69766;BME280;57039;48.014;21.384;2022-11-11T01:00:32;102194.53;;;6.51;100.00
69766;BME280;57039;48.014;21.384;2022-11-11T01:01:54;102174.72;;;6.33;100.00
69766;BME280;57039;48.014;21.384;2022-11-11T01:03:15;102193.75;;;6.42;100.00
69766;BME280;57039;48.014;21.384;2022-11-11T01:04:37;102195.59;;;6.35;100.00
69766;BME280;57039;48.014;21.384;2022-11-11T01:06:02;102196.47;;;6.32;100.00
69766;BME280;57039;48.014;21.384;2022-11-11T01:07:24;102200.03;;;6.25;100.00
69766;BME280;57039;48.014;21.384;2022-11-11T01:08:46;102210.44;;;6.22;100.00
69766;BME280;57039;48.014;21.384;2022-11-11T01:10:07;102209.66;;;6.17;100.00
69766;BME280;57039;48.014;21.384;2022-11-11T01:11:30;102206.31;;;6.04;100.00
69766;BME280;57039;48.014;21.384;2022-11-11T01:12:54;102202.03;;;5.92;100.00
69766;BME280;57039;48.014;21.384;2022-11-11T01:14:32;102209.06;;;5.81;100.00
69766;BME280;57039;48.014;21.384;2022-11-11T01:16:03;102206.47;;;5.77;100.00
69766;BME280;57039;48.014;21.384;2022-11-11T01:17:28;102211.62;;;5.84;100.00
69766;BME280;57039;48.014;21.384;2022-11-11T01:18:51;102209.00;;;5.93;100.00
69766;BME280;57039;48.014;21.384;2022-11-11T01:20:12;102203.72;;;5.98;100.00
69766;BME280;57039;48.014;21.384;2022-11-11T01:21:34;102201.09;;;6.03;100.00
69766;BME280;57039;48.014;21.384;2022-11-11T01:22:57;102194.16;;;6.00;100.00
69766;BME280;57039;48.014;21.384;2022-11-11T01:24:18;102195.03;;;5.98;100.00
69766;BME280;57039;48.014;21.384;2022-11-11T01:25:41;102195.06;;;5.96;100.00
69766;BME280;57039;48.014;21.384;2022-11-11T01:27:03;102196.78;;;5.97;100.00
69766;BME280;57039;48.014;21.384;2022-11-11T01:28:24;102188.94;;;6.00;100.00
69766;BME280;57039;48.014;21.384;2022-11-11T01:29:47;102194.16;;;6.00;100.00
69766;BME280;57039;48.014;21.384;2022-11-11T01:31:12;102178.59;;;5.94;100.00
69766;BME280;57039;48.014;21.384;2022-11-11T01:32:33;102187.22;;;5.99;100.00
69766;BME280;57039;48.014;21.384;2022-11-11T01:33:54;102195.94;;;5.97;100.00
69766;BME280;57039;48.014;21.384;2022-11-11T01:35:16;102180.34;;;5.87;100.00
69766;BME280;57039;48.014;21.384;2022-11-11T01:36:37;102195.94;;;5.95;100.00
69766;BME280;57039;48.014;21.384;2022-11-11T01:37:59;102179.50;;;5.85;100.00
69766;BME280;57039;48.014;21.384;2022-11-11T01:39:20;102196.81;;;5.92;100.00
69766;BME280;57039;48.014;21.384;2022-11-11T01:40:43;102197.69;;;5.90;100.00
69766;BME280;57039;48.014;21.384;2022-11-11T01:42:05;102199.44;;;5.89;100.00
69766;BME280;57039;48.014;21.384;2022-11-11T01:43:26;102196.81;;;5.91;100.00
69766;BME280;57039;48.014;21.384;2022-11-11T01:44:48;102198.53;;;5.92;100.00
69766;BME280;57039;48.014;21.384;2022-11-11T01:46:36;102205.50;;;5.88;100.00
69766;BME280;57039;48.014;21.384;2022-11-11T01:47:58;102202.94;;;5.85;100.00
69766;BME280;57039;48.014;21.384;2022-11-11T01:49:55;102209.03;;;5.83;100.00
69766;BME280;57039;48.014;21.384;2022-11-11T01:52:41;102216.00;;;5.84;100.00
69766;BME280;57039;48.014;21.384;2022-11-11T01:54:08;102209.06;;;5.80;100.00
69766;BME280;57039;48.014;21.384;2022-11-11T01:55:33;102213.44;;;5.78;100.00
69766;BME280;57039;48.014;21.384;2022-11-11T01:57:00;102215.16;;;5.76;100.00
69766;BME280;57039;48.014;21.384;2022-11-11T01:58:22;102220.34;;;5.77;100.00
69766;BME280;57039;48.014;21.384;2022-11-11T01:59:46;102217.78;;;5.71;100.00
69766;BME280;57039;48.014;21.384;2022-11-11T02:01:10;102221.31;;;5.67;100.00
69766;BME280;57039;48.014;21.384;2022-11-11T02:02:42;102219.63;;;5.63;100.00
69766;BME280;57039;48.014;21.384;2022-11-11T02:04:06;102216.16;;;5.61;100.00
69766;BME280;57039;48.014;21.384;2022-11-11T02:05:47;102215.34;;;5.54;100.00
69766;BME280;57039;48.014;21.384;2022-11-11T02:07:09;102203.19;;;5.50;100.00
69766;BME280;57039;48.014;21.384;2022-11-11T02:08:34;102213.59;;;5.50;100.00
69766;BME280;57039;48.014;21.384;2022-11-11T02:09:57;102213.63;;;5.47;100.00
69766;BME280;57039;48.014;21.384;2022-11-11T02:11:20;102217.13;;;5.44;100.00
69766;BME280;57039;48.014;21.384;2022-11-11T02:13:03;102214.53;;;5.41;100.00
69766;BME280;57039;48.014;21.384;2022-11-11T02:14:46;102209.34;;;5.37;100.00
69766;BME280;57039;48.014;21.384;2022-11-11T02:16:09;102212.87;;;5.28;100.00
69766;BME280;57039;48.014;21.384;2022-11-11T02:17:31;102223.31;;;5.22;100.00
69766;BME280;57039;48.014;21.384;2022-11-11T02:18:53;102227.66;;;5.21;100.00
69766;BME280;57039;48.014;21.384;2022-11-11T02:20:25;102222.47;;;5.18;100.00
69766;BME280;57039;48.014;21.384;2022-11-11T02:21:54;102224.25;;;5.10;100.00
69766;BME280;57039;48.014;21.384;2022-11-11T02:23:23;102219.94;;;5.06;100.00
69766;BME280;57039;48.014;21.384;2022-11-11T02:24:50;102220.81;;;5.02;100.00
69766;BME280;57039;48.014;21.384;2022-11-11T02:26:14;102225.16;;;5.00;100.00
69766;BME280;57039;48.014;21.384;2022-11-11T02:27:38;102222.59;;;4.97;100.00
69766;BME280;57039;48.014;21.384;2022-11-11T02:29:09;102224.31;;;4.93;100.00
69766;BME280;57039;48.014;21.384;2022-11-11T02:30:32;102222.59;;;4.91;100.00
69766;BME280;57039;48.014;21.384;2022-11-11T02:31:53;102222.63;;;4.88;100.00
69766;BME280;57039;48.014;21.384;2022-11-11T02:33:15;102225.22;;;4.86;100.00
69766;BME280;57039;48.014;21.384;2022-11-11T02:34:36;102233.87;;;4.85;100.00
69766;BME280;57039;48.014;21.384;2022-11-11T02:35:59;102238.22;;;4.83;100.00
69766;BME280;57039;48.014;21.384;2022-11-11T02:37:24;102239.13;;;4.79;100.00
69766;BME280;57039;48.014;21.384;2022-11-11T02:38:47;102229.59;;;4.76;100.00
69766;BME280;57039;48.014;21.384;2022-11-11T02:40:15;102244.28;;;4.80;100.00
69766;BME280;57039;48.014;21.384;2022-11-11T02:41:38;102245.19;;;4.79;100.00
69766;BME280;57039;48.014;21.384;2022-11-11T02:43:18;102250.37;;;4.83;100.00
69766;BME280;57039;48.014;21.384;2022-11-11T02:44:40;102253.81;;;4.83;100.00
69766;BME280;57039;48.014;21.384;2022-11-11T02:46:03;102244.28;;;4.80;100.00
69766;BME280;57039;48.014;21.384;2022-11-11T02:47:25;102253.81;;;4.83;100.00
69766;BME280;57039;48.014;21.384;2022-11-11T02:48:47;102251.22;;;4.88;100.00
69766;BME280;57039;48.014;21.384;2022-11-11T02:50:08;102255.53;;;4.92;100.00
69766;BME280;57039;48.014;21.384;2022-11-11T02:51:30;102255.53;;;4.95;100.00
69766;BME280;57039;48.014;21.384;2022-11-11T02:52:52;102248.56;;;5.00;100.00
69766;BME280;57039;48.014;21.384;2022-11-11T02:54:14;102245.09;;;5.01;100.00
69766;BME280;57039;48.014;21.384;2022-11-11T02:55:36;102246.84;;;5.00;100.00
69766;BME280;57039;48.014;21.384;2022-11-11T02:56:57;102239.91;;;4.98;100.00
69766;BME280;57039;48.014;21.384;2022-11-11T02:58:28;102246.81;;;4.99;100.00
69766;BME280;57039;48.014;21.384;2022-11-11T02:59:49;102253.78;;;5.00;100.00
69766;BME280;57039;48.014;21.384;2022-11-11T03:01:10;102253.75;;;4.98;100.00
69766;BME280;57039;48.014;21.384;2022-11-11T03:02:32;102253.78;;;5.00;100.00
69766;BME280;57039;48.014;21.384;2022-11-11T03:03:54;102253.78;;;5.00;100.00
69766;BME280;57039;48.014;21.384;2022-11-11T03:05:16;102251.16;;;4.98;100.00
69766;BME280;57039;48.014;21.384;2022-11-11T03:06:38;102255.53;;;4.87;100.00
69766;BME280;57039;48.014;21.384;2022-11-11T03:08:00;102258.16;;;4.83;100.00
69766;BME280;57039;48.014;21.384;2022-11-11T03:09:21;102258.16;;;4.78;100.00
69766;BME280;57039;48.014;21.384;2022-11-11T03:10:43;102253.84;;;4.74;100.00
69766;BME280;57039;48.014;21.384;2022-11-11T03:12:04;102253.84;;;4.72;100.00
69766;BME280;57039;48.014;21.384;2022-11-11T03:13:26;102253.84;;;4.69;100.00
69766;BME280;57039;48.014;21.384;2022-11-11T03:14:48;102261.69;;;4.65;100.00
69766;BME280;57039;48.014;21.384;2022-11-11T03:16:09;102264.28;;;4.62;100.00
69766;BME280;57039;48.014;21.384;2022-11-11T03:17:50;102256.47;;;4.57;100.00
69766;BME280;57039;48.014;21.384;2022-11-11T03:19:12;102270.34;;;4.59;100.00
69766;BME280;57039;48.014;21.384;2022-11-11T03:20:34;102266.03;;;4.53;100.00
69766;BME280;57039;48.014;21.384;2022-11-11T03:22:13;102272.06;;;4.54;100.00
69766;BME280;57039;48.014;21.384;2022-11-11T03:23:55;102263.41;;;4.60;100.00
69766;BME280;57039;48.014;21.384;2022-11-11T03:25:16;102266.88;;;4.58;100.00
69766;BME280;57039;48.014;21.384;2022-11-11T03:26:56;102267.75;;;4.62;100.00
69766;BME280;57039;48.014;21.384;2022-11-11T03:28:20;102269.44;;;4.69;100.00
69766;BME280;57039;48.014;21.384;2022-11-11T03:29:43;102274.63;;;4.75;100.00
69766;BME280;57039;48.014;21.384;2022-11-11T03:31:05;102278.09;;;4.80;100.00
69766;BME280;57039;48.014;21.384;2022-11-11T03:32:26;102278.06;;;4.90;100.00
69766;BME280;57039;48.014;21.384;2022-11-11T03:33:49;102279.81;;;4.94;100.00
69766;BME280;57039;48.014;21.384;2022-11-11T03:35:11;102261.59;;;4.94;100.00
69766;BME280;57039;48.014;21.384;2022-11-11T03:36:32;102269.41;;;4.97;100.00
69766;BME280;57039;48.014;21.384;2022-11-11T03:38:13;102268.50;;;4.96;100.00
69766;BME280;57039;48.014;21.384;2022-11-11T03:39:44;102264.19;;;4.92;100.00
69766;BME280;57039;48.014;21.384;2022-11-11T03:41:06;102272.00;;;4.92;100.00
69766;BME280;57039;48.014;21.384;2022-11-11T03:42:27;102269.41;;;4.97;100.00
69766;BME280;57039;48.014;21.384;2022-11-11T03:43:48;102266.81;;;4.91;100.00
69766;BME280;57039;48.014;21.384;2022-11-11T03:45:09;102279.78;;;4.97;100.00
69766;BME280;57039;48.014;21.384;2022-11-11T03:46:30;102275.47;;;4.97;100.00
69766;BME280;57039;48.014;21.384;2022-11-11T03:47:52;102277.22;;;4.94;100.00
69766;BME280;57039;48.014;21.384;2022-11-11T03:49:15;102282.41;;;4.92;100.00
69766;BME280;57039;48.014;21.384;2022-11-11T03:50:37;102277.22;;;4.89;100.00
69766;BME280;57039;48.014;21.384;2022-11-11T03:51:58;102286.75;;;4.83;100.00
69766;BME280;57039;48.014;21.384;2022-11-11T03:53:20;102278.97;;;4.83;100.00
69766;BME280;57039;48.014;21.384;2022-11-11T03:54:42;102275.50;;;4.74;100.00
69766;BME280;57039;48.014;21.384;2022-11-11T03:56:03;102259.06;;;4.63;100.00
69766;BME280;57039;48.014;21.384;2022-11-11T03:57:25;102278.97;;;4.69;100.00
69766;BME280;57039;48.014;21.384;2022-11-11T03:58:52;102279.84;;;4.66;100.00
69766;BME280;57039;48.014;21.384;2022-11-11T04:00:19;102285.06;;;4.65;100.00
69766;BME280;57039;48.014;21.384;2022-11-11T04:01:41;102289.41;;;4.63;100.00
69766;BME280;57039;48.014;21.384;2022-11-11T04:03:20;102288.53;;;4.54;100.00
69766;BME280;57039;48.014;21.384;2022-11-11T04:05:00;102289.44;;;4.52;100.00
69766;BME280;57039;48.014;21.384;2022-11-11T04:06:41;102292.03;;;4.52;100.00
69766;BME280;57039;48.014;21.384;2022-11-11T04:08:21;102280.75;;;4.45;100.00
69766;BME280;57039;48.014;21.384;2022-11-11T04:10:01;102291.16;;;4.50;100.00
69766;BME280;57039;48.014;21.384;2022-11-11T04:11:43;102291.16;;;4.45;100.00
69766;BME280;57039;48.014;21.384;2022-11-11T04:13:06;102300.69;;;4.42;100.00
69766;BME280;57039;48.014;21.384;2022-11-11T04:14:46;102289.41;;;4.43;100.00
69766;BME280;57039;48.014;21.384;2022-11-11T04:16:26;102292.91;;;4.40;100.00
69766;BME280;57039;48.014;21.384;2022-11-11T04:17:48;102296.34;;;4.45;100.00
69766;BME280;57039;48.014;21.384;2022-11-11T04:19:09;102296.34;;;4.48;100.00
69766;BME280;57039;48.014;21.384;2022-11-11T04:20:49;102285.97;;;4.33;100.00
69766;BME280;57039;48.014;21.384;2022-11-11T04:22:28;102296.38;;;4.38;100.00
69766;BME280;57039;48.014;21.384;2022-11-11T04:23:49;102295.50;;;4.25;100.00
69766;BME280;57039;48.014;21.384;2022-11-11T04:25:11;102298.97;;;4.13;100.00
69766;BME280;57039;48.014;21.384;2022-11-11T04:26:56;102307.59;;;4.12;100.00
69766;BME280;57039;48.014;21.384;2022-11-11T04:28:18;102317.16;;;4.10;100.00
69766;BME280;57039;48.014;21.384;2022-11-11T04:29:58;102312.78;;;4.06;100.00
69766;BME280;57039;48.014;21.384;2022-11-11T04:31:19;102313.66;;;4.05;100.00
69766;BME280;57039;48.014;21.384;2022-11-11T04:32:41;102319.75;;;4.13;100.00
69766;BME280;57039;48.014;21.384;2022-11-11T04:34:03;102317.13;;;4.15;100.00
69766;BME280;57039;48.014;21.384;2022-11-11T04:35:25;102321.47;;;4.17;100.00
69766;BME280;57039;48.014;21.384;2022-11-11T04:36:46;102319.75;;;4.19;100.00
69766;BME280;57039;48.014;21.384;2022-11-11T04:38:08;102319.75;;;4.25;100.00
69766;BME280;57039;48.014;21.384;2022-11-11T04:39:48;102321.50;;;4.25;100.00
69766;BME280;57039;48.014;21.384;2022-11-11T04:41:28;102326.66;;;4.23;100.00
69766;BME280;57039;48.014;21.384;2022-11-11T04:43:10;102324.91;;;4.08;100.00
69766;BME280;57039;48.014;21.384;2022-11-11T04:44:31;102329.25;;;4.08;100.00
69766;BME280;57039;48.014;21.384;2022-11-11T04:46:11;102322.31;;;4.08;100.00
69766;BME280;57039;48.014;21.384;2022-11-11T04:47:32;102329.25;;;4.02;100.00
69766;BME280;57039;48.014;21.384;2022-11-11T04:48:54;102317.09;;;4.01;100.00
69766;BME280;57039;48.014;21.384;2022-11-11T04:50:15;102318.84;;;3.93;100.00
69766;BME280;57039;48.014;21.384;2022-11-11T04:51:36;102320.56;;;3.94;100.00
69766;BME280;57039;48.014;21.384;2022-11-11T04:53:15;102315.38;;;3.92;100.00
69766;BME280;57039;48.014;21.384;2022-11-11T04:54:36;102316.25;;;3.99;100.00
69766;BME280;57039;48.014;21.384;2022-11-11T04:56:17;102322.31;;;4.01;100.00
69766;BME280;57039;48.014;21.384;2022-11-11T04:57:57;102327.50;;;3.98;100.00
69766;BME280;57039;48.014;21.384;2022-11-11T04:59:18;102324.03;;;3.94;100.00
69766;BME280;57039;48.014;21.384;2022-11-11T05:00:40;102332.69;;;3.96;100.00
69766;BME280;57039;48.014;21.384;2022-11-11T05:02:01;102333.56;;;3.94;100.00
69766;BME280;57039;48.014;21.384;2022-11-11T05:03:41;102315.38;;;3.83;100.00
69766;BME280;57039;48.014;21.384;2022-11-11T05:05:02;102332.69;;;3.93;100.00
69766;BME280;57039;48.014;21.384;2022-11-11T05:06:25;102341.34;;;3.94;100.00
69766;BME280;57039;48.014;21.384;2022-11-11T05:08:05;102330.09;;;3.95;100.00
69766;BME280;57039;48.014;21.384;2022-11-11T05:09:45;102333.59;;;4.04;100.00
69766;BME280;57039;48.014;21.384;2022-11-11T05:11:07;102332.72;;;4.10;100.00
69766;BME280;57039;48.014;21.384;2022-11-11T05:12:28;102336.19;;;4.17;100.00
69766;BME280;57039;48.014;21.384;2022-11-11T05:13:51;102337.91;;;4.18;100.00
69766;BME280;57039;48.014;21.384;2022-11-11T05:15:31;102338.78;;;4.17;100.00
69766;BME280;57039;48.014;21.384;2022-11-11T05:17:11;102340.53;;;4.16;100.00
69766;BME280;57039;48.014;21.384;2022-11-11T05:18:51;102324.94;;;4.19;100.00
69766;BME280;57039;48.014;21.384;2022-11-11T05:20:31;102325.81;;;4.23;100.00
69766;BME280;57039;48.014;21.384;2022-11-11T05:23:51;102339.66;;;4.39;100.00
69766;BME280;57039;48.014;21.384;2022-11-11T05:25:30;102341.41;;;4.38;100.00
69766;BME280;57039;48.014;21.384;2022-11-11T05:26:54;102342.25;;;4.39;100.00
69766;BME280;57039;48.014;21.384;2022-11-11T05:28:14;102349.19;;;4.33;100.00
69766;BME280;57039;48.014;21.384;2022-11-11T05:29:36;102352.66;;;4.23;100.00
69766;BME280;57039;48.014;21.384;2022-11-11T05:30:58;102352.63;;;4.14;100.00
69766;BME280;57039;48.014;21.384;2022-11-11T05:32:23;102355.22;;;4.12;100.00
69766;BME280;57039;48.014;21.384;2022-11-11T05:33:45;102355.22;;;4.11;100.00
69766;BME280;57039;48.014;21.384;2022-11-11T05:35:07;102343.13;;;4.07;100.00
69766;BME280;57039;48.014;21.384;2022-11-11T05:36:29;102346.56;;;4.01;100.00
69766;BME280;57039;48.014;21.384;2022-11-11T05:37:50;102343.13;;;4.07;100.00
69766;BME280;57039;48.014;21.384;2022-11-11T05:39:30;102353.50;;;4.10;100.00
69766;BME280;57039;48.014;21.384;2022-11-11T05:40:51;102358.72;;;4.19;100.00
69766;BME280;57039;48.014;21.384;2022-11-11T05:42:14;102358.72;;;4.25;100.00
69766;BME280;57039;48.014;21.384;2022-11-11T05:43:35;102359.59;;;4.32;100.00
69766;BME280;57039;48.014;21.384;2022-11-11T05:44:56;102366.53;;;4.34;100.00
69766;BME280;57039;48.014;21.384;2022-11-11T05:46:17;102367.38;;;4.37;100.00
69766;BME280;57039;48.014;21.384;2022-11-11T05:47:39;102363.03;;;4.35;100.00
69766;BME280;57039;48.014;21.384;2022-11-11T05:49:00;102357.84;;;4.39;100.00
69766;BME280;57039;48.014;21.384;2022-11-11T05:50:36;102367.38;;;4.44;100.00
69766;BME280;57039;48.014;21.384;2022-11-11T05:52:01;102368.25;;;4.51;100.00
69766;BME280;57039;48.014;21.384;2022-11-11T05:53:23;102375.19;;;4.56;100.00
69766;BME280;57039;48.014;21.384;2022-11-11T05:54:45;102373.44;;;4.60;100.00
69766;BME280;57039;48.014;21.384;2022-11-11T05:56:06;102370.84;;;4.65;100.00
69766;BME280;57039;48.014;21.384;2022-11-11T05:57:28;102369.97;;;4.69;100.00
69766;BME280;57039;48.014;21.384;2022-11-11T05:58:49;102374.31;;;4.70;100.00
69766;BME280;57039;48.014;21.384;2022-11-11T06:00:11;102333.59;;;4.47;100.00
69766;BME280;57039;48.014;21.384;2022-11-11T06:01:33;102380.38;;;4.78;100.00
69766;BME280;57039;48.014;21.384;2022-11-11T06:03:01;102380.38;;;4.86;100.00
69766;BME280;57039;48.014;21.384;2022-11-11T06:04:23;102381.25;;;4.91;100.00
69766;BME280;57039;48.014;21.384;2022-11-11T06:05:44;102377.75;;;4.95;100.00
69766;BME280;57039;48.014;21.384;2022-11-11T06:07:05;102378.63;;;4.97;100.00
69766;BME280;57039;48.014;21.384;2022-11-11T06:08:27;102383.81;;;5.00;100.00
69766;BME280;57039;48.014;21.384;2022-11-11T06:09:48;102376.03;;;5.00;100.00
69766;BME280;57039;48.014;21.384;2022-11-11T06:11:09;102375.13;;;5.04;100.00
69766;BME280;57039;48.014;21.384;2022-11-11T06:12:30;102382.94;;;5.07;100.00
69766;BME280;57039;48.014;21.384;2022-11-11T06:14:12;102371.66;;;5.07;100.00
69766;BME280;57039;48.014;21.384;2022-11-11T06:15:35;102376.84;;;5.13;100.00
69766;BME280;57039;48.014;21.384;2022-11-11T06:16:57;102382.03;;;5.14;100.00
69766;BME280;57039;48.014;21.384;2022-11-11T06:18:19;102382.03;;;5.16;100.00
69766;BME280;57039;48.014;21.384;2022-11-11T06:19:41;102383.78;;;5.15;100.00
69766;BME280;57039;48.014;21.384;2022-11-11T06:21:02;102391.59;;;5.14;100.00
69766;BME280;57039;48.014;21.384;2022-11-11T06:22:26;102392.47;;;5.13;100.00
69766;BME280;57039;48.014;21.384;2022-11-11T06:24:07;102382.06;;;5.03;100.00
69766;BME280;57039;48.014;21.384;2022-11-11T06:25:33;102387.25;;;5.13;100.00
69766;BME280;57039;48.014;21.384;2022-11-11T06:27:13;102386.41;;;5.15;100.00
69766;BME280;57039;48.014;21.384;2022-11-11T06:28:34;102383.78;;;5.15;100.00
69766;BME280;57039;48.014;21.384;2022-11-11T06:29:56;102388.09;;;5.19;100.00
69766;BME280;57039;48.014;21.384;2022-11-11T06:31:37;102392.44;;;5.22;100.00
69766;BME280;57039;48.014;21.384;2022-11-11T06:32:59;102392.44;;;5.26;100.00
69766;BME280;57039;48.014;21.384;2022-11-11T06:34:20;102396.72;;;5.35;100.00
69766;BME280;57039;48.014;21.384;2022-11-11T06:35:43;102406.25;;;5.45;100.00
69766;BME280;57039;48.014;21.384;2022-11-11T06:37:07;102401.91;;;5.54;100.00
69766;BME280;57039;48.014;21.384;2022-11-11T06:38:28;102405.31;;;5.62;100.00
69766;BME280;57039;48.014;21.384;2022-11-11T06:39:50;102405.31;;;5.69;100.00
69766;BME280;57039;48.014;21.384;2022-11-11T06:41:13;102395.72;;;5.81;100.00
69766;BME280;57039;48.014;21.384;2022-11-11T06:42:36;102406.09;;;5.93;100.00
69766;BME280;57039;48.014;21.384;2022-11-11T06:43:58;102401.69;;;6.06;100.00
69766;BME280;57039;48.014;21.384;2022-11-11T06:45:19;102398.12;;;6.21;100.00
69766;BME280;57039;48.014;21.384;2022-11-11T06:46:40;102391.09;;;6.32;100.00
69766;BME280;57039;48.014;21.384;2022-11-11T06:48:02;102394.47;;;6.43;100.00
69766;BME280;57039;48.014;21.384;2022-11-11T06:49:23;102407.41;;;6.58;100.00
69766;BME280;57039;48.014;21.384;2022-11-11T06:50:44;102412.50;;;6.72;100.00
69766;BME280;57039;48.014;21.384;2022-11-11T06:52:06;102405.47;;;6.85;100.00
69766;BME280;57039;48.014;21.384;2022-11-11T06:53:27;102404.41;;;7.00;100.00
69766;BME280;57039;48.014;21.384;2022-11-11T06:54:49;102400.78;;;7.15;100.00
69766;BME280;57039;48.014;21.384;2022-11-11T06:56:11;102403.16;;;7.38;100.00
69766;BME280;57039;48.014;21.384;2022-11-11T06:57:36;102418.62;;;7.56;100.00
69766;BME280;57039;48.014;21.384;2022-11-11T06:58:57;102405.44;;;7.67;100.00
69766;BME280;57039;48.014;21.384;2022-11-11T07:00:19;102408.00;;;7.71;100.00
69766;BME280;57039;48.014;21.384;2022-11-11T07:01:40;102413.03;;;7.87;100.00
69766;BME280;57039;48.014;21.384;2022-11-11T07:03:02;102406.88;;;7.89;100.00
69766;BME280;57039;48.014;21.384;2022-11-11T07:04:24;102407.56;;;8.04;100.00
69766;BME280;57039;48.014;21.384;2022-11-11T07:05:46;102424.03;;;8.12;100.00
69766;BME280;57039;48.014;21.384;2022-11-11T07:07:08;102416.09;;;8.16;100.00
69766;BME280;57039;48.014;21.384;2022-11-11T07:08:30;102426.59;;;8.13;100.00
69766;BME280;57039;48.014;21.384;2022-11-11T07:09:51;102421.44;;;8.09;100.00
69766;BME280;57039;48.014;21.384;2022-11-11T07:11:13;102415.50;;;7.99;100.00
69766;BME280;57039;48.014;21.384;2022-11-11T07:12:42;102426.06;;;7.90;100.00
69766;BME280;57039;48.014;21.384;2022-11-11T07:14:04;102426.94;;;7.90;100.00
69766;BME280;57039;48.014;21.384;2022-11-11T07:15:26;102426.00;;;7.94;100.00
69766;BME280;57039;48.014;21.384;2022-11-11T07:16:48;102420.06;;;7.80;100.00
69766;BME280;57039;48.014;21.384;2022-11-11T07:18:10;102432.31;;;7.78;100.00
69766;BME280;57039;48.014;21.384;2022-11-11T07:19:31;102433.13;;;7.82;100.00
69766;BME280;57039;48.014;21.384;2022-11-11T07:20:53;102436.44;;;7.94;100.00
69766;BME280;57039;48.014;21.384;2022-11-11T07:22:14;102440.66;;;8.08;100.00
69766;BME280;57039;48.014;21.384;2022-11-11T07:23:35;102446.69;;;8.11;100.00
69766;BME280;57039;48.014;21.384;2022-11-11T07:24:56;102449.31;;;8.10;100.00
69766;BME280;57039;48.014;21.384;2022-11-11T07:26:17;102453.72;;;8.06;100.00
69766;BME280;57039;48.014;21.384;2022-11-11T07:27:40;102445.88;;;8.06;100.00